createdAt,value
2023-03-03T00:00:08.240Z,4
2023-03-03T00:00:37.529Z,4
2023-03-03T00:01:10.038Z,4
2023-03-03T00:01:41.316Z,4
2023-03-03T00:02:14.127Z,4
2023-03-03T00:02:45.564Z,4
2023-03-03T00:03:18.279Z,27
2023-03-03T00:03:49.283Z,26
2023-03-03T00:04:21.922Z,26
2023-03-03T00:04:53.327Z,26
2023-03-03T00:05:26.351Z,18
2023-03-03T00:05:57.275Z,18
2023-03-03T00:06:30.014Z,19
2023-03-03T00:07:01.221Z,19
2023-03-03T00:07:34.143Z,19
2023-03-03T00:08:05.409Z,19
2023-03-03T00:08:38.889Z,19
2023-03-03T00:09:09.227Z,19
2023-03-03T00:09:42.021Z,19
2023-03-03T00:10:13.628Z,19
2023-03-03T00:10:45.883Z,11
2023-03-03T00:11:17.279Z,11
2023-03-03T00:11:50.011Z,11
2023-03-03T00:12:21.420Z,11
2023-03-03T00:12:54.116Z,11
2023-03-03T00:13:25.328Z,11
2023-03-03T00:13:58.999Z,11
2023-03-03T00:14:29.273Z,11
2023-03-03T00:15:03.402Z,11
2023-03-03T00:15:33.506Z,11
2023-03-03T00:16:06.199Z,14
2023-03-03T00:16:37.361Z,14
2023-03-03T00:17:10.139Z,17
2023-03-03T00:17:41.434Z,17
2023-03-03T00:18:14.008Z,22
2023-03-03T00:18:45.326Z,23
2023-03-03T00:19:18.085Z,23
2023-03-03T00:19:49.365Z,24
2023-03-03T00:20:22.633Z,22
2023-03-03T00:20:53.267Z,23
2023-03-03T00:21:26.141Z,23
2023-03-03T00:21:57.270Z,23
2023-03-03T00:22:30.239Z,23
2023-03-03T00:23:01.449Z,23
2023-03-03T00:23:33.932Z,22
2023-03-03T00:24:05.304Z,22
2023-03-03T00:24:38.046Z,22
2023-03-03T00:25:09.462Z,22
2023-03-03T00:25:42.133Z,22
2023-03-03T00:26:13.272Z,21
2023-03-03T00:26:46.038Z,21
2023-03-03T00:27:17.241Z,21
2023-03-03T00:27:50.077Z,21
2023-03-03T00:28:21.347Z,21
2023-03-03T00:28:54.267Z,21
2023-03-03T00:29:25.312Z,21
2023-03-03T00:29:58.184Z,348
2023-03-03T00:30:30.618Z,348
2023-03-03T00:31:02.097Z,348
2023-03-03T00:31:33.412Z,348
2023-03-03T00:32:06.213Z,348
2023-03-03T00:32:37.236Z,348
2023-03-03T00:33:10.271Z,348
2023-03-03T00:33:41.404Z,348
2023-03-03T00:34:14.091Z,348
2023-03-03T00:34:45.241Z,348
2023-03-03T00:35:18.553Z,348
2023-03-03T00:35:49.424Z,348
2023-03-03T00:36:22.264Z,348
2023-03-03T00:36:53.270Z,348
2023-03-03T00:37:26.187Z,348
2023-03-03T00:37:57.308Z,348
2023-03-03T00:38:29.921Z,347
2023-03-03T00:39:01.284Z,347
2023-03-03T00:39:34.353Z,347
2023-03-03T00:40:05.439Z,346
2023-03-03T00:40:38.360Z,345
2023-03-03T00:41:09.412Z,343
2023-03-03T00:41:41.981Z,343
2023-03-03T00:42:13.192Z,343
2023-03-03T00:42:46.280Z,343
2023-03-03T00:43:17.415Z,342
2023-03-03T00:43:49.961Z,342
2023-03-03T00:44:21.216Z,342
2023-03-03T00:44:54.046Z,342
2023-03-03T00:45:26.144Z,342
2023-03-03T00:45:58.385Z,342
2023-03-03T00:46:29.384Z,342
2023-03-03T00:47:02.019Z,342
2023-03-03T00:47:33.168Z,342
2023-03-03T00:48:06.325Z,342
2023-03-03T00:48:37.270Z,337
2023-03-03T00:49:10.347Z,337
2023-03-03T00:49:41.292Z,337
2023-03-03T00:50:14.386Z,336
2023-03-03T00:50:45.331Z,309
2023-03-03T00:51:18.011Z,309
2023-03-03T00:51:49.234Z,309
2023-03-03T00:52:22.544Z,309
2023-03-03T00:52:53.179Z,309
2023-03-03T00:53:26.069Z,309
2023-03-03T00:53:57.367Z,309
2023-03-03T00:54:30.122Z,310
2023-03-03T00:55:01.609Z,310
2023-03-03T00:55:34.075Z,310
2023-03-03T00:56:05.410Z,310
2023-03-03T00:56:38.820Z,309
2023-03-03T00:57:09.227Z,309
2023-03-03T00:57:42.372Z,309
2023-03-03T00:58:13.295Z,309
2023-03-03T00:58:46.053Z,309
2023-03-03T00:59:17.256Z,309
2023-03-03T00:59:50.083Z,309
2023-03-03T01:00:22.713Z,309
2023-03-03T01:00:54.190Z,309
2023-03-03T01:01:25.422Z,309
2023-03-03T01:01:58.187Z,309
2023-03-03T01:02:29.320Z,309
2023-03-03T01:03:02.386Z,309
2023-03-03T01:03:33.411Z,309
2023-03-03T01:04:05.949Z,309
2023-03-03T01:04:37.259Z,309
2023-03-03T01:05:10.334Z,309
2023-03-03T01:05:41.411Z,309
2023-03-03T01:06:14.033Z,309
2023-03-03T01:06:45.299Z,309
2023-03-03T01:07:18.226Z,309
2023-03-03T01:07:49.211Z,309
2023-03-03T01:08:22.137Z,309
2023-03-03T01:08:53.305Z,310
2023-03-03T01:09:26.178Z,309
2023-03-03T01:09:57.607Z,310
2023-03-03T01:10:30.512Z,310
2023-03-03T01:11:01.367Z,310
2023-03-03T01:11:34.066Z,309
2023-03-03T01:12:05.275Z,309
2023-03-03T01:12:39.049Z,309
2023-03-03T01:13:09.403Z,309
2023-03-03T01:13:41.910Z,310
2023-03-03T01:14:13.277Z,310
2023-03-03T01:14:46.142Z,310
2023-03-03T01:15:18.123Z,310
2023-03-03T01:15:50.250Z,310
2023-03-03T01:16:21.480Z,310
2023-03-03T01:16:54.025Z,310
2023-03-03T01:17:25.273Z,310
2023-03-03T01:17:58.221Z,310
2023-03-03T01:18:29.228Z,310
2023-03-03T01:19:02.026Z,310
2023-03-03T01:19:33.302Z,310
2023-03-03T01:20:06.220Z,310
2023-03-03T01:20:37.209Z,310
2023-03-03T01:21:10.030Z,310
2023-03-03T01:21:41.293Z,310
2023-03-03T01:22:13.979Z,310
2023-03-03T01:22:45.104Z,310
2023-03-03T01:23:18.224Z,310
2023-03-03T01:23:49.362Z,310
2023-03-03T01:24:21.949Z,310
2023-03-03T01:24:53.189Z,310
2023-03-03T01:25:27.708Z,310
2023-03-03T01:25:57.128Z,310
2023-03-03T01:26:29.980Z,312
2023-03-03T01:27:01.323Z,312
2023-03-03T01:27:34.155Z,312
2023-03-03T01:28:05.186Z,312
2023-03-03T01:28:38.078Z,312
2023-03-03T01:29:09.258Z,312
2023-03-03T01:29:42.284Z,312
2023-03-03T01:30:14.051Z,312
2023-03-03T01:30:46.408Z,312
2023-03-03T01:31:17.494Z,312
2023-03-03T01:31:50.122Z,311
2023-03-03T01:32:21.356Z,311
2023-03-03T01:32:54.364Z,311
2023-03-03T01:33:25.365Z,311
2023-03-03T01:33:58.152Z,311
2023-03-03T01:34:29.271Z,311
2023-03-03T01:35:02.796Z,311
2023-03-03T01:35:33.195Z,311
2023-03-03T01:36:06.165Z,320
2023-03-03T01:36:37.308Z,320
2023-03-03T01:37:10.195Z,320
2023-03-03T01:37:41.284Z,320
2023-03-03T01:38:14.171Z,320
2023-03-03T01:38:45.363Z,320
2023-03-03T01:39:18.199Z,320
2023-03-03T01:39:49.282Z,320
2023-03-03T01:40:22.440Z,320
2023-03-03T01:40:53.182Z,320
2023-03-03T01:41:09.417Z,320
2023-03-03T01:41:41.129Z,320
2023-03-03T01:42:13.285Z,335
2023-03-03T01:42:46.266Z,335
2023-03-03T01:43:17.294Z,335
2023-03-03T01:43:50.023Z,335
2023-03-03T01:44:21.269Z,335
2023-03-03T01:44:54.532Z,335
2023-03-03T01:45:26.589Z,335
2023-03-03T01:45:58.302Z,335
2023-03-03T01:46:29.267Z,335
2023-03-03T01:47:02.303Z,335
2023-03-03T01:47:33.136Z,335
2023-03-03T01:48:06.067Z,342
2023-03-03T01:48:37.342Z,342
2023-03-03T01:49:09.975Z,343
2023-03-03T01:49:41.225Z,342
2023-03-03T01:50:14.354Z,342
2023-03-03T01:50:45.379Z,342
2023-03-03T01:51:18.130Z,342
2023-03-03T01:51:49.272Z,342
2023-03-03T01:52:22.231Z,342
2023-03-03T01:52:53.238Z,334
2023-03-03T01:53:26.260Z,334
2023-03-03T01:53:57.308Z,336
2023-03-03T01:54:30.282Z,336
2023-03-03T01:55:01.652Z,336
2023-03-03T01:55:34.162Z,336
2023-03-03T01:56:05.407Z,336
2023-03-03T01:56:38.224Z,336
2023-03-03T01:57:09.292Z,336
2023-03-03T01:57:42.024Z,336
2023-03-03T01:58:13.324Z,336
2023-03-03T01:58:46.151Z,336
2023-03-03T01:59:17.418Z,336
2023-03-03T01:59:50.128Z,336
2023-03-03T02:00:23.095Z,336
2023-03-03T02:00:54.348Z,336
2023-03-03T02:01:25.365Z,336
2023-03-03T02:01:58.222Z,336
2023-03-03T02:02:29.238Z,336
2023-03-03T02:03:02.208Z,336
2023-03-03T02:03:33.373Z,336
2023-03-03T02:04:06.320Z,336
2023-03-03T02:04:37.347Z,336
2023-03-03T02:05:10.598Z,335
2023-03-03T02:05:41.232Z,335
2023-03-03T02:06:13.953Z,336
2023-03-03T02:06:45.348Z,336
2023-03-03T02:07:17.898Z,336
2023-03-03T02:07:49.204Z,336
2023-03-03T02:08:22.071Z,336
2023-03-03T02:08:53.366Z,336
2023-03-03T02:09:26.099Z,334
2023-03-03T02:09:57.400Z,334
2023-03-03T02:10:30.575Z,334
2023-03-03T02:11:01.355Z,334
2023-03-03T02:11:34.176Z,332
2023-03-03T02:12:05.346Z,331
2023-03-03T02:12:38.393Z,331
2023-03-03T02:13:09.279Z,331
2023-03-03T02:13:42.208Z,332
2023-03-03T02:14:13.443Z,329
2023-03-03T02:14:46.229Z,329
2023-03-03T02:15:18.127Z,329
2023-03-03T02:15:50.499Z,329
2023-03-03T02:16:21.447Z,329
2023-03-03T02:16:54.203Z,329
2023-03-03T02:17:25.367Z,329
2023-03-03T02:17:58.364Z,329
2023-03-03T02:18:29.330Z,329
2023-03-03T02:19:02.119Z,327
2023-03-03T02:19:33.342Z,327
2023-03-03T02:20:06.404Z,327
2023-03-03T02:20:37.297Z,327
2023-03-03T02:21:10.268Z,327
2023-03-03T02:21:41.402Z,327
2023-03-03T02:22:15.074Z,327
2023-03-03T02:22:45.282Z,327
2023-03-03T02:23:18.266Z,327
2023-03-03T02:23:49.374Z,314
2023-03-03T02:24:22.044Z,314
2023-03-03T02:24:53.236Z,314
2023-03-03T02:25:26.563Z,314
2023-03-03T02:25:59.031Z,314
2023-03-03T02:26:30.296Z,314
2023-03-03T02:27:01.458Z,314
2023-03-03T02:27:34.177Z,314
2023-03-03T02:28:05.260Z,313
2023-03-03T02:28:42.004Z,313
2023-03-03T02:29:09.428Z,313
2023-03-03T02:29:41.256Z,313
2023-03-03T02:30:15.048Z,311
2023-03-03T02:30:45.471Z,308
2023-03-03T02:31:18.226Z,308
2023-03-03T02:31:49.343Z,308
2023-03-03T02:32:22.699Z,308
2023-03-03T02:32:53.331Z,308
2023-03-03T02:33:26.130Z,308
2023-03-03T02:33:57.315Z,308
2023-03-03T02:34:30.173Z,308
2023-03-03T02:35:01.819Z,308
2023-03-03T02:35:34.260Z,308
2023-03-03T02:36:05.426Z,307
2023-03-03T02:36:38.266Z,307
2023-03-03T02:37:09.242Z,307
2023-03-03T02:37:42.249Z,306
2023-03-03T02:38:13.425Z,306
2023-03-03T02:38:46.033Z,306
2023-03-03T02:39:17.307Z,307
2023-03-03T02:39:50.064Z,307
2023-03-03T02:40:21.506Z,307
2023-03-03T02:40:54.044Z,307
2023-03-03T02:41:25.340Z,306
2023-03-03T02:41:58.013Z,307
2023-03-03T02:42:29.326Z,307
2023-03-03T02:43:02.263Z,307
2023-03-03T02:43:33.380Z,307
2023-03-03T02:44:05.958Z,307
2023-03-03T02:44:37.208Z,306
2023-03-03T02:45:11.259Z,307
2023-03-03T02:45:41.410Z,307
2023-03-03T02:46:14.027Z,307
2023-03-03T02:46:45.256Z,307
2023-03-03T02:47:18.312Z,307
2023-03-03T02:47:49.170Z,305
2023-03-03T02:48:22.101Z,305
2023-03-03T02:48:53.390Z,305
2023-03-03T02:49:26.123Z,305
2023-03-03T02:49:57.312Z,305
2023-03-03T02:50:30.764Z,305
2023-03-03T02:51:01.518Z,305
2023-03-03T02:51:34.263Z,305
2023-03-03T02:52:05.291Z,305
2023-03-03T02:52:38.397Z,305
2023-03-03T02:53:09.192Z,304
2023-03-03T02:53:42.279Z,304
2023-03-03T02:54:13.410Z,304
2023-03-03T02:54:46.299Z,304
2023-03-03T02:55:17.919Z,304
2023-03-03T02:55:50.180Z,304
2023-03-03T02:56:21.376Z,304
2023-03-03T02:56:54.331Z,304
2023-03-03T02:57:25.334Z,304
2023-03-03T02:57:58.257Z,304
2023-03-03T02:58:29.185Z,304
2023-03-03T02:59:02.266Z,304
2023-03-03T02:59:33.413Z,304
2023-03-03T03:00:07.747Z,304
2023-03-03T03:00:37.438Z,304
2023-03-03T03:01:10.257Z,304
2023-03-03T03:01:41.480Z,304
2023-03-03T03:02:14.380Z,304
2023-03-03T03:02:45.485Z,304
2023-03-03T03:03:18.340Z,304
2023-03-03T03:03:49.589Z,304
2023-03-03T03:04:22.276Z,304
2023-03-03T03:04:53.496Z,304
2023-03-03T03:05:26.566Z,304
2023-03-03T03:05:57.290Z,304
2023-03-03T03:06:30.377Z,304
2023-03-03T03:07:01.455Z,304
2023-03-03T03:07:34.156Z,304
2023-03-03T03:08:05.188Z,304
2023-03-03T03:08:38.151Z,305
2023-03-03T03:09:09.375Z,305
2023-03-03T03:09:42.117Z,305
2023-03-03T03:10:13.584Z,305
2023-03-03T03:10:46.268Z,305
2023-03-03T03:11:17.327Z,305
2023-03-03T03:11:50.300Z,305
2023-03-03T03:12:21.414Z,304
2023-03-03T03:12:54.351Z,305
2023-03-03T03:13:25.238Z,303
2023-03-03T03:13:58.074Z,302
2023-03-03T03:14:29.381Z,302
2023-03-03T03:15:03.522Z,301
2023-03-03T03:15:33.431Z,301
2023-03-03T03:16:06.274Z,298
2023-03-03T03:16:37.553Z,298
2023-03-03T03:17:10.112Z,297
2023-03-03T03:17:41.412Z,297
2023-03-03T03:18:15.150Z,297
2023-03-03T03:18:45.230Z,297
2023-03-03T03:19:18.049Z,297
2023-03-03T03:19:49.359Z,297
2023-03-03T03:20:22.444Z,297
2023-03-03T03:20:53.385Z,296
2023-03-03T03:21:26.091Z,296
2023-03-03T03:21:57.423Z,296
2023-03-03T03:22:30.146Z,296
2023-03-03T03:23:01.415Z,296
2023-03-03T03:23:34.256Z,296
2023-03-03T03:24:05.462Z,295
2023-03-03T03:24:38.093Z,295
2023-03-03T03:25:09.678Z,295
2023-03-03T03:25:42.292Z,290
2023-03-03T03:26:13.257Z,290
2023-03-03T03:26:45.970Z,290
2023-03-03T03:27:17.419Z,290
2023-03-03T03:27:50.295Z,290
2023-03-03T03:28:21.335Z,290
2023-03-03T03:28:55.513Z,290
2023-03-03T03:29:25.351Z,290
2023-03-03T03:29:58.036Z,290
2023-03-03T03:30:30.528Z,290
2023-03-03T03:31:02.350Z,290
2023-03-03T03:31:33.239Z,278
2023-03-03T03:32:06.153Z,278
2023-03-03T03:32:37.414Z,278
2023-03-03T03:33:10.197Z,272
2023-03-03T03:33:41.278Z,272
2023-03-03T03:34:14.247Z,272
2023-03-03T03:34:45.464Z,272
2023-03-03T03:35:18.427Z,272
2023-03-03T03:35:49.340Z,272
2023-03-03T03:36:22.294Z,272
2023-03-03T03:36:53.413Z,272
2023-03-03T03:37:26.145Z,270
2023-03-03T03:37:57.344Z,270
2023-03-03T03:38:30.348Z,270
2023-03-03T03:39:01.407Z,270
2023-03-03T03:39:34.325Z,269
2023-03-03T03:40:05.586Z,263
2023-03-03T03:40:38.166Z,263
2023-03-03T03:41:09.341Z,262
2023-03-03T03:41:43.235Z,263
2023-03-03T03:42:13.474Z,263
2023-03-03T03:42:46.295Z,263
2023-03-03T03:43:17.282Z,262
2023-03-03T03:43:50.467Z,262
2023-03-03T03:44:21.276Z,263
2023-03-03T03:44:54.186Z,263
2023-03-03T03:45:26.342Z,263
2023-03-03T03:45:58.525Z,263
2023-03-03T03:46:29.281Z,263
2023-03-03T03:47:02.380Z,263
2023-03-03T03:47:33.556Z,263
2023-03-03T03:48:06.146Z,263
2023-03-03T03:48:37.419Z,263
2023-03-03T03:49:10.999Z,263
2023-03-03T03:49:41.463Z,263
2023-03-03T03:50:15.467Z,263
2023-03-03T03:50:45.389Z,263
2023-03-03T03:51:18.532Z,285
2023-03-03T03:51:49.374Z,285
2023-03-03T03:52:22.270Z,285
2023-03-03T03:52:53.482Z,285
2023-03-03T03:53:26.477Z,285
2023-03-03T03:53:57.500Z,284
2023-03-03T03:54:29.991Z,284
2023-03-03T03:55:01.789Z,284
2023-03-03T03:55:33.941Z,284
2023-03-03T03:56:05.377Z,284
2023-03-03T03:56:38.334Z,284
2023-03-03T03:57:09.492Z,284
2023-03-03T03:57:42.165Z,284
2023-03-03T03:58:13.247Z,284
2023-03-03T03:58:46.405Z,284
2023-03-03T03:59:17.249Z,284
2023-03-03T03:59:50.155Z,284
2023-03-03T04:00:22.462Z,284
2023-03-03T04:00:54.838Z,284
2023-03-03T04:01:25.216Z,284
2023-03-03T04:01:58.244Z,284
2023-03-03T04:02:29.487Z,285
2023-03-03T04:03:03.280Z,285
2023-03-03T04:03:33.386Z,285
2023-03-03T04:04:06.381Z,282
2023-03-03T04:04:37.452Z,279
2023-03-03T04:05:11.407Z,279
2023-03-03T04:05:41.375Z,279
2023-03-03T04:06:14.240Z,279
2023-03-03T04:06:45.291Z,279
2023-03-03T04:07:18.268Z,279
2023-03-03T04:07:49.395Z,279
2023-03-03T04:08:22.264Z,279
2023-03-03T04:08:53.339Z,279
2023-03-03T04:09:26.121Z,279
2023-03-03T04:09:57.666Z,271
2023-03-03T04:10:30.546Z,271
2023-03-03T04:11:01.383Z,271
2023-03-03T04:11:34.306Z,271
2023-03-03T04:12:05.315Z,271
2023-03-03T04:12:38.125Z,271
2023-03-03T04:13:09.442Z,271
2023-03-03T04:13:42.243Z,271
2023-03-03T04:14:13.299Z,271
2023-03-03T04:14:46.006Z,268
2023-03-03T04:15:18.368Z,268
2023-03-03T04:15:50.284Z,268
2023-03-03T04:16:21.294Z,268
2023-03-03T04:16:54.161Z,268
2023-03-03T04:17:25.279Z,268
2023-03-03T04:17:58.104Z,268
2023-03-03T04:18:29.345Z,268
2023-03-03T04:19:02.267Z,268
2023-03-03T04:19:33.356Z,268
2023-03-03T04:20:06.309Z,267
2023-03-03T04:20:37.330Z,266
2023-03-03T04:21:10.031Z,266
2023-03-03T04:21:41.407Z,267
2023-03-03T04:22:14.035Z,267
2023-03-03T04:22:45.437Z,267
2023-03-03T04:23:17.956Z,267
2023-03-03T04:23:49.288Z,267
2023-03-03T04:24:22.229Z,267
2023-03-03T04:24:53.294Z,267
2023-03-03T04:25:09.771Z,267
2023-03-03T04:25:41.262Z,267
2023-03-03T04:26:13.285Z,267
2023-03-03T04:26:46.207Z,267
2023-03-03T04:27:17.474Z,267
2023-03-03T04:27:50.073Z,267
2023-03-03T04:28:21.302Z,267
2023-03-03T04:28:54.204Z,267
2023-03-03T04:29:25.399Z,267
2023-03-03T04:29:58.163Z,267
2023-03-03T04:30:30.643Z,267
2023-03-03T04:31:03.224Z,267
2023-03-03T04:31:33.312Z,267
2023-03-03T04:32:07.030Z,267
2023-03-03T04:32:37.395Z,267
2023-03-03T04:33:10.185Z,267
2023-03-03T04:33:41.357Z,267
2023-03-03T04:34:14.183Z,267
2023-03-03T04:34:48.936Z,267
2023-03-03T04:35:18.479Z,267
2023-03-03T04:35:49.372Z,267
2023-03-03T04:36:22.232Z,267
2023-03-03T04:36:53.385Z,266
2023-03-03T04:37:26.259Z,266
2023-03-03T04:37:57.531Z,266
2023-03-03T04:38:30.269Z,267
2023-03-03T04:39:01.455Z,267
2023-03-03T04:39:34.201Z,267
2023-03-03T04:40:05.619Z,266
2023-03-03T04:40:38.153Z,266
2023-03-03T04:41:09.348Z,266
2023-03-03T04:41:42.164Z,266
2023-03-03T04:42:13.430Z,267
2023-03-03T04:42:46.215Z,267
2023-03-03T04:43:17.322Z,267
2023-03-03T04:43:50.245Z,267
2023-03-03T04:44:21.359Z,267
2023-03-03T04:44:54.141Z,267
2023-03-03T04:45:26.404Z,266
2023-03-03T04:45:58.539Z,266
2023-03-03T04:46:29.318Z,266
2023-03-03T04:47:02.142Z,266
2023-03-03T04:47:33.345Z,268
2023-03-03T04:48:06.126Z,267
2023-03-03T04:48:37.340Z,267
2023-03-03T04:49:12.401Z,267
2023-03-03T04:49:41.454Z,267
2023-03-03T04:50:14.272Z,267
2023-03-03T04:50:45.278Z,267
2023-03-03T04:51:18.147Z,267
2023-03-03T04:51:49.221Z,267
2023-03-03T04:52:22.119Z,267
2023-03-03T04:52:53.390Z,267
2023-03-03T04:53:26.300Z,267
2023-03-03T04:53:57.334Z,267
2023-03-03T04:54:30.124Z,267
2023-03-03T04:55:01.880Z,267
2023-03-03T04:55:34.107Z,267
2023-03-03T04:56:05.415Z,267
2023-03-03T04:56:38.254Z,267
2023-03-03T04:57:09.608Z,267
2023-03-03T04:57:42.294Z,267
2023-03-03T04:58:13.296Z,267
2023-03-03T04:58:46.333Z,267
2023-03-03T04:59:17.311Z,267
2023-03-03T04:59:51.147Z,267
2023-03-03T05:00:22.427Z,267
2023-03-03T05:00:54.339Z,267
2023-03-03T05:01:25.528Z,267
2023-03-03T05:01:59.118Z,267
2023-03-03T05:02:29.530Z,267
2023-03-03T05:03:02.905Z,267
2023-03-03T05:03:33.344Z,267
2023-03-03T05:04:06.207Z,267
2023-03-03T05:04:37.512Z,267
2023-03-03T05:05:10.401Z,267
2023-03-03T05:05:41.431Z,267
2023-03-03T05:06:14.510Z,267
2023-03-03T05:06:45.339Z,267
2023-03-03T05:07:18.379Z,267
2023-03-03T05:07:49.446Z,267
2023-03-03T05:08:23.093Z,267
2023-03-03T05:08:53.284Z,267
2023-03-03T05:09:09.609Z,267
2023-03-03T05:09:41.342Z,267
2023-03-03T05:10:13.716Z,267
2023-03-03T05:10:45.658Z,267
2023-03-03T05:11:17.343Z,267
2023-03-03T05:11:50.381Z,267
2023-03-03T05:12:21.467Z,267
2023-03-03T05:12:55.558Z,267
2023-03-03T05:13:25.318Z,267
2023-03-03T05:13:58.204Z,267
2023-03-03T05:14:29.434Z,267
2023-03-03T05:15:03.721Z,267
2023-03-03T05:15:33.537Z,267
2023-03-03T05:16:06.570Z,267
2023-03-03T05:16:37.467Z,267
2023-03-03T05:17:11.123Z,267
2023-03-03T05:17:41.374Z,267
2023-03-03T05:18:14.344Z,267
2023-03-03T05:18:45.211Z,267
2023-03-03T05:19:18.082Z,267
2023-03-03T05:19:49.233Z,267
2023-03-03T05:20:22.391Z,267
2023-03-03T05:20:53.300Z,267
2023-03-03T05:21:09.552Z,267
2023-03-03T05:21:41.257Z,267
2023-03-03T05:22:13.346Z,268
2023-03-03T05:22:45.369Z,273
2023-03-03T05:23:17.243Z,273
2023-03-03T05:23:50.284Z,274
2023-03-03T05:24:21.394Z,273
2023-03-03T05:24:54.423Z,273
2023-03-03T05:25:25.622Z,273
2023-03-03T05:25:58.373Z,273
2023-03-03T05:26:29.410Z,274
2023-03-03T05:27:02.260Z,273
2023-03-03T05:27:33.356Z,273
2023-03-03T05:28:06.554Z,273
2023-03-03T05:28:37.426Z,273
2023-03-03T05:29:10.274Z,273
2023-03-03T05:29:41.333Z,273
2023-03-03T05:30:15.295Z,273
2023-03-03T05:30:45.461Z,273
2023-03-03T05:31:18.248Z,274
2023-03-03T05:31:49.567Z,273
2023-03-03T05:32:22.446Z,274
2023-03-03T05:32:53.223Z,274
2023-03-03T05:33:26.159Z,273
2023-03-03T05:33:57.335Z,273
2023-03-03T05:34:30.067Z,273
2023-03-03T05:35:01.671Z,273
2023-03-03T05:35:34.232Z,273
2023-03-03T05:36:05.376Z,273
2023-03-03T05:36:38.165Z,273
2023-03-03T05:37:09.403Z,273
2023-03-03T05:37:42.339Z,273
2023-03-03T05:38:13.252Z,274
2023-03-03T05:38:46.083Z,274
2023-03-03T05:39:17.451Z,274
2023-03-03T05:39:50.269Z,274
2023-03-03T05:40:21.685Z,274
2023-03-03T05:40:54.287Z,271
2023-03-03T05:41:25.251Z,271
2023-03-03T05:41:41.584Z,271
2023-03-03T05:42:13.479Z,270
2023-03-03T05:42:45.345Z,269
2023-03-03T05:43:18.207Z,269
2023-03-03T05:43:49.400Z,269
2023-03-03T05:44:22.950Z,270
2023-03-03T05:44:53.230Z,270
2023-03-03T05:45:27.624Z,270
2023-03-03T05:45:57.631Z,270
2023-03-03T05:46:30.343Z,270
2023-03-03T05:47:01.422Z,270
2023-03-03T05:47:34.589Z,270
2023-03-03T05:48:05.160Z,270
2023-03-03T05:48:38.984Z,270
2023-03-03T05:49:09.360Z,270
2023-03-03T05:49:42.443Z,270
2023-03-03T05:50:13.523Z,270
2023-03-03T05:50:46.120Z,270
2023-03-03T05:51:17.413Z,274
2023-03-03T05:51:50.990Z,275
2023-03-03T05:52:21.255Z,276
2023-03-03T05:52:54.331Z,277
2023-03-03T05:53:25.501Z,277
2023-03-03T05:53:58.186Z,277
2023-03-03T05:54:29.337Z,277
2023-03-03T05:55:02.604Z,277
2023-03-03T05:55:33.419Z,277
2023-03-03T05:56:06.172Z,277
2023-03-03T05:56:37.701Z,277
2023-03-03T05:57:10.626Z,277
2023-03-03T05:57:41.454Z,325
2023-03-03T05:58:14.474Z,325
2023-03-03T05:58:45.667Z,325
2023-03-03T05:59:18.426Z,325
2023-03-03T05:59:49.527Z,325
2023-03-03T06:00:23.560Z,324
2023-03-03T06:00:53.813Z,324
2023-03-03T06:01:26.512Z,325
2023-03-03T06:01:57.616Z,325
2023-03-03T06:02:30.679Z,324
2023-03-03T06:03:01.463Z,324
2023-03-03T06:03:38.160Z,324
2023-03-03T06:04:05.528Z,325
2023-03-03T06:04:37.689Z,325
2023-03-03T06:05:09.870Z,324
2023-03-03T06:05:41.662Z,324
2023-03-03T06:06:13.649Z,325
2023-03-03T06:06:45.508Z,325
2023-03-03T06:07:18.580Z,325
2023-03-03T06:07:49.776Z,325
2023-03-03T06:08:22.655Z,325
2023-03-03T06:08:55.558Z,324
2023-03-03T06:09:09.707Z,324
2023-03-03T06:09:41.617Z,324
2023-03-03T06:10:14.023Z,324
2023-03-03T06:10:45.926Z,324
2023-03-03T06:11:17.678Z,324
2023-03-03T06:11:50.272Z,324
2023-03-03T06:12:21.666Z,325
2023-03-03T06:12:54.586Z,325
2023-03-03T06:13:25.575Z,324
2023-03-03T06:13:58.374Z,324
2023-03-03T06:14:29.658Z,324
2023-03-03T06:15:03.919Z,324
2023-03-03T06:15:33.737Z,318
2023-03-03T06:16:06.438Z,318
2023-03-03T06:16:37.764Z,318
2023-03-03T06:17:10.574Z,318
2023-03-03T06:17:41.678Z,318
2023-03-03T06:18:14.357Z,318
2023-03-03T06:18:45.536Z,318
2023-03-03T06:19:18.350Z,318
2023-03-03T06:19:49.660Z,318
2023-03-03T06:20:22.790Z,318
2023-03-03T06:20:53.528Z,318
2023-03-03T06:21:09.750Z,318
2023-03-03T06:21:41.606Z,318
2023-03-03T06:22:13.605Z,318
2023-03-03T06:22:45.600Z,318
2023-03-03T06:23:17.745Z,318
2023-03-03T06:23:49.605Z,318
2023-03-03T06:24:21.594Z,318
2023-03-03T06:24:53.592Z,321
2023-03-03T06:25:25.823Z,321
2023-03-03T06:25:58.409Z,321
2023-03-03T06:26:29.691Z,321
2023-03-03T06:27:02.575Z,321
2023-03-03T06:27:33.520Z,320
2023-03-03T06:28:06.623Z,321
2023-03-03T06:28:37.735Z,321
2023-03-03T06:29:10.300Z,321
2023-03-03T06:29:41.799Z,321
2023-03-03T06:30:16.459Z,321
2023-03-03T06:30:45.668Z,321
2023-03-03T06:31:18.345Z,321
2023-03-03T06:31:49.724Z,322
2023-03-03T06:32:22.623Z,325
2023-03-03T06:32:53.601Z,325
2023-03-03T06:33:26.353Z,324
2023-03-03T06:33:57.643Z,324
2023-03-03T06:34:32.448Z,324
2023-03-03T06:35:01.891Z,324
2023-03-03T06:35:34.484Z,324
2023-03-03T06:36:05.911Z,324
2023-03-03T06:36:38.424Z,319
2023-03-03T06:37:09.625Z,317
2023-03-03T06:37:42.621Z,317
2023-03-03T06:38:13.611Z,316
2023-03-03T06:38:46.327Z,316
2023-03-03T06:39:17.646Z,316
2023-03-03T06:39:50.517Z,316
2023-03-03T06:40:21.753Z,314
2023-03-03T06:40:54.575Z,321
2023-03-03T06:41:25.712Z,321
2023-03-03T06:42:00.497Z,320
2023-03-03T06:42:29.751Z,320
2023-03-03T06:43:02.372Z,320
2023-03-03T06:43:33.746Z,320
2023-03-03T06:44:06.388Z,315
2023-03-03T06:44:37.673Z,315
2023-03-03T06:45:11.470Z,315
2023-03-03T06:45:41.723Z,315
2023-03-03T06:46:15.411Z,308
2023-03-03T06:46:45.546Z,308
2023-03-03T06:47:21.882Z,308
2023-03-03T06:47:49.582Z,308
2023-03-03T06:48:22.485Z,308
2023-03-03T06:48:53.689Z,307
2023-03-03T06:49:26.411Z,306
2023-03-03T06:49:57.511Z,315
2023-03-03T06:50:30.858Z,315
2023-03-03T06:51:01.808Z,315
2023-03-03T06:51:34.604Z,306
2023-03-03T06:52:05.668Z,306
2023-03-03T06:52:39.573Z,306
2023-03-03T06:53:09.572Z,306
2023-03-03T06:53:42.487Z,306
2023-03-03T06:54:13.703Z,293
2023-03-03T06:54:46.476Z,293
2023-03-03T06:55:17.881Z,293
2023-03-03T06:55:50.395Z,293
2023-03-03T06:56:21.657Z,293
2023-03-03T06:56:54.354Z,293
2023-03-03T06:57:25.558Z,293
2023-03-03T06:57:58.710Z,293
2023-03-03T06:58:29.798Z,293
2023-03-03T06:59:02.387Z,293
2023-03-03T06:59:33.646Z,288
2023-03-03T07:00:07.984Z,287
2023-03-03T07:00:37.587Z,286
2023-03-03T07:01:10.655Z,286
2023-03-03T07:01:41.664Z,286
2023-03-03T07:02:14.528Z,286
2023-03-03T07:02:45.638Z,285
2023-03-03T07:03:19.454Z,285
2023-03-03T07:03:49.786Z,285
2023-03-03T07:04:22.370Z,285
2023-03-03T07:04:53.554Z,285
2023-03-03T07:05:26.874Z,286
2023-03-03T07:05:57.778Z,286
2023-03-03T07:06:30.290Z,286
2023-03-03T07:07:01.683Z,286
2023-03-03T07:07:34.367Z,286
2023-03-03T07:08:05.498Z,286
2023-03-03T07:08:38.391Z,286
2023-03-03T07:09:09.685Z,286
2023-03-03T07:09:42.633Z,287
2023-03-03T07:10:14.060Z,286
2023-03-03T07:10:47.392Z,286
2023-03-03T07:11:17.740Z,286
2023-03-03T07:11:50.389Z,286
2023-03-03T07:12:21.642Z,286
2023-03-03T07:12:54.919Z,286
2023-03-03T07:13:25.666Z,286
2023-03-03T07:13:59.316Z,286
2023-03-03T07:14:29.903Z,286
2023-03-03T07:15:03.845Z,286
2023-03-03T07:15:33.686Z,302
2023-03-03T07:16:06.539Z,304
2023-03-03T07:16:37.704Z,307
2023-03-03T07:17:10.558Z,307
2023-03-03T07:17:41.742Z,307
2023-03-03T07:18:14.620Z,307
2023-03-03T07:18:45.832Z,307
2023-03-03T07:19:18.535Z,307
2023-03-03T07:19:51.743Z,308